Terminal Aerodrome Forecast
Issued by NWS

Home | Current Version | Previous Version | Text Only | Print | Product List | Glossary On
Versions: 1 2 3 4 5 6 7 8 9 10 11 12 13 14 15 16
000
FTUS43 KGRR 312300
TAFAZO
TAF
KAZO 312340Z 0100/0124 VRB05KT P6SM SKC
     FM011800 23004KT P6SM VCTS FEW040CB=

USA.gov is the U.S. government's official web portal to all federal, state and local government web resources and services.